sensor_id;sensor_type;location;lat;lon;timestamp;P1;durP1;ratioP1;P2;durP2;ratioP2
65189;SDS011;51777;53.570;9.984;2023-11-21T00:00:37;13.35;;;8.07;;
65189;SDS011;51777;53.570;9.984;2023-11-21T00:03:02;12.35;;;6.78;;
65189;SDS011;51777;53.570;9.984;2023-11-21T00:05:29;11.18;;;6.90;;
65189;SDS011;51777;53.570;9.984;2023-11-21T00:07:54;10.55;;;6.15;;
65189;SDS011;51777;53.570;9.984;2023-11-21T00:10:20;11.75;;;6.88;;
65189;SDS011;51777;53.570;9.984;2023-11-21T00:12:46;14.98;;;7.32;;
65189;SDS011;51777;53.570;9.984;2023-11-21T00:15:13;11.02;;;7.38;;
65189;SDS011;51777;53.570;9.984;2023-11-21T00:17:39;12.60;;;7.82;;
65189;SDS011;51777;53.570;9.984;2023-11-21T00:20:08;8.40;;;6.15;;
65189;SDS011;51777;53.570;9.984;2023-11-21T00:22:52;7.82;;;5.80;;
65189;SDS011;51777;53.570;9.984;2023-11-21T00:25:20;7.40;;;5.30;;
65189;SDS011;51777;53.570;9.984;2023-11-21T00:27:59;6.53;;;4.82;;
65189;SDS011;51777;53.570;9.984;2023-11-21T00:30:26;9.65;;;4.90;;
65189;SDS011;51777;53.570;9.984;2023-11-21T00:32:56;8.55;;;4.95;;
65189;SDS011;51777;53.570;9.984;2023-11-21T00:35:22;9.60;;;5.43;;
65189;SDS011;51777;53.570;9.984;2023-11-21T00:37:47;6.85;;;5.38;;
65189;SDS011;51777;53.570;9.984;2023-11-21T00:40:14;7.97;;;5.65;;
65189;SDS011;51777;53.570;9.984;2023-11-21T00:42:40;11.00;;;6.00;;
65189;SDS011;51777;53.570;9.984;2023-11-21T00:45:06;10.48;;;6.40;;
65189;SDS011;51777;53.570;9.984;2023-11-21T00:47:32;12.77;;;6.60;;
65189;SDS011;51777;53.570;9.984;2023-11-21T00:49:57;11.07;;;6.93;;
65189;SDS011;51777;53.570;9.984;2023-11-21T00:52:23;11.52;;;7.25;;
65189;SDS011;51777;53.570;9.984;2023-11-21T00:54:48;11.23;;;7.13;;
65189;SDS011;51777;53.570;9.984;2023-11-21T00:57:14;12.50;;;7.63;;
65189;SDS011;51777;53.570;9.984;2023-11-21T00:59:40;14.40;;;7.80;;
65189;SDS011;51777;53.570;9.984;2023-11-21T01:02:05;12.93;;;8.25;;
65189;SDS011;51777;53.570;9.984;2023-11-21T01:04:30;14.52;;;8.60;;
65189;SDS011;51777;53.570;9.984;2023-11-21T01:06:57;17.55;;;8.30;;
65189;SDS011;51777;53.570;9.984;2023-11-21T01:09:23;14.23;;;8.40;;
65189;SDS011;51777;53.570;9.984;2023-11-21T01:11:49;13.85;;;7.80;;
65189;SDS011;51777;53.570;9.984;2023-11-21T01:14:14;20.65;;;9.35;;
65189;SDS011;51777;53.570;9.984;2023-11-21T01:16:40;15.93;;;10.00;;
65189;SDS011;51777;53.570;9.984;2023-11-21T01:19:05;22.60;;;11.13;;
65189;SDS011;51777;53.570;9.984;2023-11-21T01:21:30;22.42;;;10.60;;
65189;SDS011;51777;53.570;9.984;2023-11-21T01:23:56;17.42;;;9.93;;
65189;SDS011;51777;53.570;9.984;2023-11-21T01:26:21;18.08;;;10.18;;
65189;SDS011;51777;53.570;9.984;2023-11-21T01:28:47;18.20;;;10.15;;
65189;SDS011;51777;53.570;9.984;2023-11-21T01:31:16;22.70;;;9.82;;
65189;SDS011;51777;53.570;9.984;2023-11-21T01:33:41;19.25;;;10.25;;
65189;SDS011;51777;53.570;9.984;2023-11-21T01:36:07;14.80;;;9.82;;
65189;SDS011;51777;53.570;9.984;2023-11-21T01:38:33;17.83;;;10.10;;
65189;SDS011;51777;53.570;9.984;2023-11-21T01:40:59;21.30;;;10.68;;
65189;SDS011;51777;53.570;9.984;2023-11-21T01:43:25;13.98;;;8.82;;
65189;SDS011;51777;53.570;9.984;2023-11-21T01:45:51;15.88;;;8.63;;
65189;SDS011;51777;53.570;9.984;2023-11-21T01:48:18;12.95;;;8.70;;
65189;SDS011;51777;53.570;9.984;2023-11-21T01:50:44;16.75;;;8.60;;
65189;SDS011;51777;53.570;9.984;2023-11-21T01:53:10;11.90;;;8.55;;
65189;SDS011;51777;53.570;9.984;2023-11-21T01:55:38;11.10;;;7.82;;
65189;SDS011;51777;53.570;9.984;2023-11-21T01:58:05;12.82;;;7.88;;
65189;SDS011;51777;53.570;9.984;2023-11-21T02:00:32;13.32;;;8.00;;
65189;SDS011;51777;53.570;9.984;2023-11-21T02:02:58;11.93;;;7.90;;
65189;SDS011;51777;53.570;9.984;2023-11-21T02:05:24;10.18;;;7.03;;
65189;SDS011;51777;53.570;9.984;2023-11-21T02:07:51;11.07;;;7.13;;
65189;SDS011;51777;53.570;9.984;2023-11-21T02:10:17;10.70;;;6.80;;
65189;SDS011;51777;53.570;9.984;2023-11-21T02:12:47;8.77;;;6.40;;
65189;SDS011;51777;53.570;9.984;2023-11-21T02:15:15;11.18;;;5.97;;
65189;SDS011;51777;53.570;9.984;2023-11-21T02:17:48;8.82;;;6.22;;
65189;SDS011;51777;53.570;9.984;2023-11-21T02:20:19;9.82;;;6.43;;
65189;SDS011;51777;53.570;9.984;2023-11-21T02:22:51;9.45;;;6.22;;
65189;SDS011;51777;53.570;9.984;2023-11-21T02:25:29;9.95;;;6.22;;
65189;SDS011;51777;53.570;9.984;2023-11-21T02:27:57;7.93;;;5.80;;
65189;SDS011;51777;53.570;9.984;2023-11-21T02:30:24;9.50;;;5.68;;
65189;SDS011;51777;53.570;9.984;2023-11-21T02:32:56;8.00;;;5.88;;
65189;SDS011;51777;53.570;9.984;2023-11-21T02:35:22;8.05;;;5.70;;
65189;SDS011;51777;53.570;9.984;2023-11-21T02:37:48;9.93;;;5.70;;
65189;SDS011;51777;53.570;9.984;2023-11-21T02:40:13;8.30;;;6.20;;
65189;SDS011;51777;53.570;9.984;2023-11-21T02:42:42;8.60;;;6.20;;
65189;SDS011;51777;53.570;9.984;2023-11-21T02:45:17;9.55;;;6.10;;
65189;SDS011;51777;53.570;9.984;2023-11-21T02:47:45;10.68;;;5.40;;
65189;SDS011;51777;53.570;9.984;2023-11-21T02:50:11;8.23;;;5.55;;
65189;SDS011;51777;53.570;9.984;2023-11-21T02:52:37;7.28;;;5.43;;
65189;SDS011;51777;53.570;9.984;2023-11-21T02:55:05;7.70;;;5.90;;
65189;SDS011;51777;53.570;9.984;2023-11-21T02:57:32;7.47;;;5.85;;
65189;SDS011;51777;53.570;9.984;2023-11-21T02:59:58;7.90;;;6.05;;
65189;SDS011;51777;53.570;9.984;2023-11-21T03:02:25;8.93;;;5.70;;
65189;SDS011;51777;53.570;9.984;2023-11-21T03:04:51;8.10;;;5.85;;
65189;SDS011;51777;53.570;9.984;2023-11-21T03:07:16;7.82;;;5.90;;
65189;SDS011;51777;53.570;9.984;2023-11-21T03:09:45;8.80;;;6.03;;
65189;SDS011;51777;53.570;9.984;2023-11-21T03:12:11;14.77;;;6.63;;
65189;SDS011;51777;53.570;9.984;2023-11-21T03:14:39;7.93;;;5.93;;
65189;SDS011;51777;53.570;9.984;2023-11-21T03:17:05;10.73;;;6.45;;
65189;SDS011;51777;53.570;9.984;2023-11-21T03:19:30;8.88;;;6.00;;
65189;SDS011;51777;53.570;9.984;2023-11-21T03:21:56;10.45;;;6.20;;
65189;SDS011;51777;53.570;9.984;2023-11-21T03:24:21;10.23;;;6.07;;
65189;SDS011;51777;53.570;9.984;2023-11-21T03:26:47;8.38;;;5.88;;
65189;SDS011;51777;53.570;9.984;2023-11-21T03:29:13;8.95;;;6.13;;
65189;SDS011;51777;53.570;9.984;2023-11-21T03:31:39;10.35;;;6.03;;
65189;SDS011;51777;53.570;9.984;2023-11-21T03:34:05;9.38;;;6.35;;
65189;SDS011;51777;53.570;9.984;2023-11-21T03:36:31;12.48;;;6.30;;
65189;SDS011;51777;53.570;9.984;2023-11-21T03:38:57;10.88;;;6.72;;
65189;SDS011;51777;53.570;9.984;2023-11-21T03:41:22;11.13;;;6.22;;
65189;SDS011;51777;53.570;9.984;2023-11-21T03:43:48;9.68;;;6.50;;
65189;SDS011;51777;53.570;9.984;2023-11-21T03:46:13;9.75;;;6.07;;
65189;SDS011;51777;53.570;9.984;2023-11-21T03:48:39;8.82;;;6.55;;
65189;SDS011;51777;53.570;9.984;2023-11-21T03:51:04;11.82;;;6.38;;
65189;SDS011;51777;53.570;9.984;2023-11-21T03:53:30;9.50;;;6.28;;
65189;SDS011;51777;53.570;9.984;2023-11-21T03:55:55;8.48;;;6.00;;
65189;SDS011;51777;53.570;9.984;2023-11-21T03:58:21;9.02;;;6.40;;
65189;SDS011;51777;53.570;9.984;2023-11-21T04:00:47;8.93;;;6.40;;
65189;SDS011;51777;53.570;9.984;2023-11-21T04:03:14;9.85;;;5.97;;
65189;SDS011;51777;53.570;9.984;2023-11-21T04:05:39;9.82;;;6.43;;
65189;SDS011;51777;53.570;9.984;2023-11-21T04:08:06;10.80;;;6.35;;
65189;SDS011;51777;53.570;9.984;2023-11-21T04:10:31;12.82;;;6.50;;
65189;SDS011;51777;53.570;9.984;2023-11-21T04:12:56;8.55;;;6.05;;
65189;SDS011;51777;53.570;9.984;2023-11-21T04:15:22;8.20;;;6.43;;
65189;SDS011;51777;53.570;9.984;2023-11-21T04:17:47;11.30;;;6.90;;
65189;SDS011;51777;53.570;9.984;2023-11-21T04:20:13;10.90;;;7.20;;
65189;SDS011;51777;53.570;9.984;2023-11-21T04:22:39;9.95;;;6.43;;
65189;SDS011;51777;53.570;9.984;2023-11-21T04:25:13;11.18;;;6.60;;
65189;SDS011;51777;53.570;9.984;2023-11-21T04:27:40;12.88;;;6.80;;
65189;SDS011;51777;53.570;9.984;2023-11-21T04:30:08;10.95;;;6.75;;
65189;SDS011;51777;53.570;9.984;2023-11-21T04:32:35;9.43;;;6.68;;
65189;SDS011;51777;53.570;9.984;2023-11-21T04:35:01;9.55;;;6.93;;
65189;SDS011;51777;53.570;9.984;2023-11-21T04:37:26;8.85;;;6.30;;
65189;SDS011;51777;53.570;9.984;2023-11-21T04:39:52;11.98;;;7.25;;
65189;SDS011;51777;53.570;9.984;2023-11-21T04:42:17;10.10;;;6.88;;
65189;SDS011;51777;53.570;9.984;2023-11-21T04:44:42;11.38;;;7.25;;
65189;SDS011;51777;53.570;9.984;2023-11-21T04:47:09;9.98;;;6.80;;
65189;SDS011;51777;53.570;9.984;2023-11-21T04:49:34;11.13;;;6.57;;
65189;SDS011;51777;53.570;9.984;2023-11-21T04:52:00;10.27;;;7.05;;
65189;SDS011;51777;53.570;9.984;2023-11-21T04:54:26;9.50;;;7.07;;
65189;SDS011;51777;53.570;9.984;2023-11-21T04:56:52;10.55;;;6.80;;
65189;SDS011;51777;53.570;9.984;2023-11-21T04:59:17;9.40;;;6.88;;
65189;SDS011;51777;53.570;9.984;2023-11-21T05:01:42;8.93;;;6.57;;
65189;SDS011;51777;53.570;9.984;2023-11-21T05:04:08;9.63;;;6.70;;
65189;SDS011;51777;53.570;9.984;2023-11-21T05:06:34;10.98;;;6.88;;
65189;SDS011;51777;53.570;9.984;2023-11-21T05:09:00;10.90;;;7.13;;
65189;SDS011;51777;53.570;9.984;2023-11-21T05:11:26;13.15;;;7.15;;
65189;SDS011;51777;53.570;9.984;2023-11-21T05:13:52;10.88;;;6.82;;
65189;SDS011;51777;53.570;9.984;2023-11-21T05:16:19;9.68;;;7.10;;
65189;SDS011;51777;53.570;9.984;2023-11-21T05:18:45;11.80;;;6.93;;
65189;SDS011;51777;53.570;9.984;2023-11-21T05:21:10;8.90;;;6.75;;
65189;SDS011;51777;53.570;9.984;2023-11-21T05:23:36;10.20;;;6.45;;
65189;SDS011;51777;53.570;9.984;2023-11-21T05:26:03;11.32;;;6.95;;
65189;SDS011;51777;53.570;9.984;2023-11-21T05:28:29;10.23;;;6.68;;
65189;SDS011;51777;53.570;9.984;2023-11-21T05:30:54;11.45;;;6.85;;
65189;SDS011;51777;53.570;9.984;2023-11-21T05:33:20;10.18;;;6.88;;
65189;SDS011;51777;53.570;9.984;2023-11-21T05:35:45;9.32;;;6.63;;
65189;SDS011;51777;53.570;9.984;2023-11-21T05:38:13;10.63;;;6.45;;
65189;SDS011;51777;53.570;9.984;2023-11-21T05:40:38;8.75;;;6.65;;
65189;SDS011;51777;53.570;9.984;2023-11-21T05:43:03;10.63;;;6.60;;
65189;SDS011;51777;53.570;9.984;2023-11-21T05:45:30;9.95;;;6.85;;
65189;SDS011;51777;53.570;9.984;2023-11-21T05:47:55;11.68;;;7.18;;
65189;SDS011;51777;53.570;9.984;2023-11-21T05:50:20;8.10;;;6.43;;
65189;SDS011;51777;53.570;9.984;2023-11-21T05:52:47;9.77;;;6.75;;
65189;SDS011;51777;53.570;9.984;2023-11-21T05:55:13;9.65;;;6.65;;
65189;SDS011;51777;53.570;9.984;2023-11-21T05:57:39;8.50;;;6.78;;
65189;SDS011;51777;53.570;9.984;2023-11-21T06:00:06;16.70;;;6.50;;
65189;SDS011;51777;53.570;9.984;2023-11-21T06:02:37;23.52;;;7.15;;
65189;SDS011;51777;53.570;9.984;2023-11-21T06:05:08;12.13;;;6.25;;
65189;SDS011;51777;53.570;9.984;2023-11-21T06:07:35;8.75;;;6.50;;
65189;SDS011;51777;53.570;9.984;2023-11-21T06:10:07;7.95;;;6.20;;
65189;SDS011;51777;53.570;9.984;2023-11-21T06:12:36;9.27;;;6.60;;
65189;SDS011;51777;53.570;9.984;2023-11-21T06:15:03;9.23;;;6.35;;
65189;SDS011;51777;53.570;9.984;2023-11-21T06:17:30;9.57;;;6.85;;
65189;SDS011;51777;53.570;9.984;2023-11-21T06:19:56;10.73;;;6.70;;
65189;SDS011;51777;53.570;9.984;2023-11-21T06:22:22;8.77;;;6.90;;
65189;SDS011;51777;53.570;9.984;2023-11-21T06:24:47;9.52;;;6.53;;
65189;SDS011;51777;53.570;9.984;2023-11-21T06:27:13;10.02;;;6.72;;
65189;SDS011;51777;53.570;9.984;2023-11-21T06:29:38;10.50;;;6.63;;
65189;SDS011;51777;53.570;9.984;2023-11-21T06:32:04;8.88;;;6.80;;
65189;SDS011;51777;53.570;9.984;2023-11-21T06:34:30;12.48;;;6.80;;
65189;SDS011;51777;53.570;9.984;2023-11-21T06:36:56;11.45;;;6.75;;
65189;SDS011;51777;53.570;9.984;2023-11-21T06:39:21;12.93;;;7.45;;
65189;SDS011;51777;53.570;9.984;2023-11-21T06:41:48;12.85;;;6.88;;
65189;SDS011;51777;53.570;9.984;2023-11-21T06:44:14;12.35;;;7.00;;
65189;SDS011;51777;53.570;9.984;2023-11-21T06:46:40;8.80;;;6.97;;
65189;SDS011;51777;53.570;9.984;2023-11-21T06:49:07;12.48;;;6.82;;
65189;SDS011;51777;53.570;9.984;2023-11-21T06:51:33;9.98;;;7.20;;
65189;SDS011;51777;53.570;9.984;2023-11-21T06:53:58;9.32;;;7.00;;
65189;SDS011;51777;53.570;9.984;2023-11-21T06:56:24;10.82;;;6.57;;
65189;SDS011;51777;53.570;9.984;2023-11-21T06:58:49;9.07;;;6.93;;
65189;SDS011;51777;53.570;9.984;2023-11-21T07:01:15;13.82;;;7.10;;
65189;SDS011;51777;53.570;9.984;2023-11-21T07:03:40;8.18;;;6.47;;
65189;SDS011;51777;53.570;9.984;2023-11-21T07:06:06;12.52;;;6.80;;
65189;SDS011;51777;53.570;9.984;2023-11-21T07:08:32;10.35;;;6.70;;
65189;SDS011;51777;53.570;9.984;2023-11-21T07:10:58;9.95;;;6.50;;
65189;SDS011;51777;53.570;9.984;2023-11-21T07:13:23;12.05;;;7.10;;
65189;SDS011;51777;53.570;9.984;2023-11-21T07:15:48;10.50;;;6.93;;
65189;SDS011;51777;53.570;9.984;2023-11-21T07:18:14;9.80;;;6.88;;
65189;SDS011;51777;53.570;9.984;2023-11-21T07:20:39;10.88;;;6.75;;
65189;SDS011;51777;53.570;9.984;2023-11-21T07:23:05;9.52;;;6.63;;
65189;SDS011;51777;53.570;9.984;2023-11-21T07:25:31;9.98;;;6.60;;
65189;SDS011;51777;53.570;9.984;2023-11-21T07:27:58;11.95;;;6.85;;
65189;SDS011;51777;53.570;9.984;2023-11-21T07:30:24;10.88;;;6.72;;
65189;SDS011;51777;53.570;9.984;2023-11-21T07:32:49;11.68;;;6.70;;
65189;SDS011;51777;53.570;9.984;2023-11-21T07:35:15;9.60;;;6.88;;
65189;SDS011;51777;53.570;9.984;2023-11-21T07:37:40;12.68;;;7.07;;
65189;SDS011;51777;53.570;9.984;2023-11-21T07:40:06;10.05;;;6.40;;
65189;SDS011;51777;53.570;9.984;2023-11-21T07:42:33;9.43;;;6.80;;
65189;SDS011;51777;53.570;9.984;2023-11-21T07:44:59;9.73;;;7.05;;
65189;SDS011;51777;53.570;9.984;2023-11-21T07:47:25;7.80;;;6.15;;
65189;SDS011;51777;53.570;9.984;2023-11-21T07:49:52;13.05;;;6.40;;
65189;SDS011;51777;53.570;9.984;2023-11-21T07:52:18;45.60;;;7.25;;
65189;SDS011;51777;53.570;9.984;2023-11-21T07:54:46;10.55;;;7.22;;
65189;SDS011;51777;53.570;9.984;2023-11-21T07:57:11;9.02;;;6.25;;
65189;SDS011;51777;53.570;9.984;2023-11-21T07:59:38;13.80;;;6.95;;
65189;SDS011;51777;53.570;9.984;2023-11-21T08:02:05;9.73;;;6.22;;
65189;SDS011;51777;53.570;9.984;2023-11-21T08:04:31;8.60;;;5.70;;
65189;SDS011;51777;53.570;9.984;2023-11-21T08:06:58;9.48;;;5.50;;
65189;SDS011;51777;53.570;9.984;2023-11-21T08:09:23;8.27;;;5.63;;
65189;SDS011;51777;53.570;9.984;2023-11-21T08:11:49;7.30;;;5.55;;
65189;SDS011;51777;53.570;9.984;2023-11-21T08:14:15;9.55;;;5.82;;
65189;SDS011;51777;53.570;9.984;2023-11-21T08:16:40;8.48;;;6.03;;
65189;SDS011;51777;53.570;9.984;2023-11-21T08:19:06;7.97;;;5.68;;
65189;SDS011;51777;53.570;9.984;2023-11-21T08:21:31;9.50;;;5.43;;
65189;SDS011;51777;53.570;9.984;2023-11-21T08:23:56;7.20;;;4.82;;
65189;SDS011;51777;53.570;9.984;2023-11-21T08:26:22;7.32;;;5.10;;
65189;SDS011;51777;53.570;9.984;2023-11-21T08:28:49;5.90;;;4.88;;
65189;SDS011;51777;53.570;9.984;2023-11-21T08:31:17;7.03;;;4.78;;
65189;SDS011;51777;53.570;9.984;2023-11-21T08:33:44;6.57;;;4.93;;
65189;SDS011;51777;53.570;9.984;2023-11-21T08:36:09;8.50;;;4.80;;
65189;SDS011;51777;53.570;9.984;2023-11-21T08:38:37;9.85;;;4.22;;
65189;SDS011;51777;53.570;9.984;2023-11-21T08:41:06;6.20;;;4.85;;
65189;SDS011;51777;53.570;9.984;2023-11-21T08:43:33;5.78;;;4.30;;
65189;SDS011;51777;53.570;9.984;2023-11-21T08:46:00;7.13;;;4.80;;
65189;SDS011;51777;53.570;9.984;2023-11-21T08:48:29;5.40;;;4.07;;
65189;SDS011;51777;53.570;9.984;2023-11-21T08:50:59;7.07;;;4.30;;
65189;SDS011;51777;53.570;9.984;2023-11-21T08:53:24;5.50;;;4.20;;
65189;SDS011;51777;53.570;9.984;2023-11-21T08:55:51;5.82;;;4.00;;
65189;SDS011;51777;53.570;9.984;2023-11-21T08:58:16;5.50;;;3.70;;
65189;SDS011;51777;53.570;9.984;2023-11-21T09:00:42;6.40;;;3.60;;
65189;SDS011;51777;53.570;9.984;2023-11-21T09:03:10;4.47;;;3.75;;
65189;SDS011;51777;53.570;9.984;2023-11-21T09:05:37;7.25;;;3.60;;
65189;SDS011;51777;53.570;9.984;2023-11-21T09:08:05;4.38;;;3.60;;
65189;SDS011;51777;53.570;9.984;2023-11-21T09:10:33;4.72;;;3.80;;
65189;SDS011;51777;53.570;9.984;2023-11-21T09:13:02;5.60;;;4.22;;
65189;SDS011;51777;53.570;9.984;2023-11-21T09:15:29;7.30;;;4.13;;
65189;SDS011;51777;53.570;9.984;2023-11-21T09:17:55;5.25;;;4.00;;
65189;SDS011;51777;53.570;9.984;2023-11-21T09:20:21;6.18;;;4.30;;
65189;SDS011;51777;53.570;9.984;2023-11-21T09:22:48;6.75;;;4.53;;
65189;SDS011;51777;53.570;9.984;2023-11-21T09:25:14;7.82;;;4.47;;
65189;SDS011;51777;53.570;9.984;2023-11-21T09:27:40;8.35;;;5.10;;
65189;SDS011;51777;53.570;9.984;2023-11-21T09:30:06;5.32;;;3.78;;
65189;SDS011;51777;53.570;9.984;2023-11-21T09:32:35;8.90;;;4.13;;
65189;SDS011;51777;53.570;9.984;2023-11-21T09:35:02;5.45;;;3.70;;
65189;SDS011;51777;53.570;9.984;2023-11-21T09:37:28;5.13;;;4.03;;
65189;SDS011;51777;53.570;9.984;2023-11-21T09:39:54;8.05;;;3.90;;
65189;SDS011;51777;53.570;9.984;2023-11-21T09:42:23;7.93;;;4.15;;
65189;SDS011;51777;53.570;9.984;2023-11-21T09:47:39;7.35;;;3.78;;
65189;SDS011;51777;53.570;9.984;2023-11-21T09:50:04;4.63;;;3.63;;
65189;SDS011;51777;53.570;9.984;2023-11-21T09:52:33;5.20;;;3.58;;
65189;SDS011;51777;53.570;9.984;2023-11-21T09:55:14;7.75;;;3.58;;
65189;SDS011;51777;53.570;9.984;2023-11-21T09:57:44;3.85;;;3.03;;
65189;SDS011;51777;53.570;9.984;2023-11-21T10:00:10;5.32;;;2.88;;
65189;SDS011;51777;53.570;9.984;2023-11-21T10:02:37;3.72;;;3.20;;
65189;SDS011;51777;53.570;9.984;2023-11-21T10:05:05;8.05;;;3.55;;
65189;SDS011;51777;53.570;9.984;2023-11-21T10:07:31;6.00;;;3.33;;
65189;SDS011;51777;53.570;9.984;2023-11-21T10:09:59;5.28;;;3.22;;
65189;SDS011;51777;53.570;9.984;2023-11-21T10:12:26;6.28;;;3.22;;
65189;SDS011;51777;53.570;9.984;2023-11-21T10:14:53;4.55;;;3.53;;
65189;SDS011;51777;53.570;9.984;2023-11-21T10:17:21;5.38;;;2.88;;
65189;SDS011;51777;53.570;9.984;2023-11-21T10:19:58;4.40;;;3.03;;
65189;SDS011;51777;53.570;9.984;2023-11-21T10:22:23;7.38;;;3.17;;
65189;SDS011;51777;53.570;9.984;2023-11-21T10:24:49;3.85;;;2.78;;
65189;SDS011;51777;53.570;9.984;2023-11-21T10:27:15;4.75;;;2.92;;
65189;SDS011;51777;53.570;9.984;2023-11-21T10:29:41;4.25;;;2.95;;
65189;SDS011;51777;53.570;9.984;2023-11-21T10:32:06;8.05;;;2.88;;
65189;SDS011;51777;53.570;9.984;2023-11-21T10:34:32;4.10;;;2.47;;
65189;SDS011;51777;53.570;9.984;2023-11-21T10:36:58;4.70;;;2.67;;
65189;SDS011;51777;53.570;9.984;2023-11-21T10:39:39;6.68;;;2.70;;
65189;SDS011;51777;53.570;9.984;2023-11-21T10:42:04;4.88;;;3.45;;
65189;SDS011;51777;53.570;9.984;2023-11-21T10:44:35;4.40;;;2.72;;
65189;SDS011;51777;53.570;9.984;2023-11-21T10:47:00;4.60;;;2.72;;
65189;SDS011;51777;53.570;9.984;2023-11-21T10:49:27;3.88;;;2.60;;
65189;SDS011;51777;53.570;9.984;2023-11-21T10:51:53;3.45;;;2.50;;
65189;SDS011;51777;53.570;9.984;2023-11-21T10:54:19;6.50;;;2.55;;
65189;SDS011;51777;53.570;9.984;2023-11-21T10:56:46;3.00;;;2.58;;
65189;SDS011;51777;53.570;9.984;2023-11-21T10:59:16;3.05;;;2.60;;
65189;SDS011;51777;53.570;9.984;2023-11-21T11:01:42;4.93;;;2.80;;
65189;SDS011;51777;53.570;9.984;2023-11-21T11:04:10;4.45;;;2.80;;
65189;SDS011;51777;53.570;9.984;2023-11-21T11:06:42;4.38;;;2.83;;
65189;SDS011;51777;53.570;9.984;2023-11-21T11:09:09;3.72;;;2.97;;
65189;SDS011;51777;53.570;9.984;2023-11-21T11:11:39;4.22;;;2.90;;
65189;SDS011;51777;53.570;9.984;2023-11-21T11:14:12;5.05;;;3.10;;
65189;SDS011;51777;53.570;9.984;2023-11-21T11:16:39;4.30;;;3.03;;
65189;SDS011;51777;53.570;9.984;2023-11-21T11:19:08;5.70;;;2.90;;
65189;SDS011;51777;53.570;9.984;2023-11-21T11:29:48;6.25;;;2.78;;
65189;SDS011;51777;53.570;9.984;2023-11-21T11:38:33;5.93;;;2.90;;
65189;SDS011;51777;53.570;9.984;2023-11-21T11:41:26;6.53;;;2.53;;
65189;SDS011;51777;53.570;9.984;2023-11-21T11:43:54;3.80;;;2.50;;
65189;SDS011;51777;53.570;9.984;2023-11-21T11:46:20;5.07;;;2.63;;
65189;SDS011;51777;53.570;9.984;2023-11-21T11:48:48;4.70;;;2.90;;
65189;SDS011;51777;53.570;9.984;2023-11-21T11:51:28;4.28;;;2.90;;
65189;SDS011;51777;53.570;9.984;2023-11-21T11:53:54;4.93;;;3.20;;
65189;SDS011;51777;53.570;9.984;2023-11-21T11:56:28;3.88;;;3.08;;
65189;SDS011;51777;53.570;9.984;2023-11-21T11:58:59;3.47;;;2.75;;
65189;SDS011;51777;53.570;9.984;2023-11-21T12:01:33;4.75;;;2.80;;
65189;SDS011;51777;53.570;9.984;2023-11-21T12:06:48;3.20;;;2.65;;
65189;SDS011;51777;53.570;9.984;2023-11-21T12:09:20;8.25;;;3.03;;
65189;SDS011;51777;53.570;9.984;2023-11-21T12:12:05;5.35;;;3.00;;
65189;SDS011;51777;53.570;9.984;2023-11-21T12:14:31;4.47;;;2.75;;
65189;SDS011;51777;53.570;9.984;2023-11-21T12:16:57;7.57;;;3.10;;
65189;SDS011;51777;53.570;9.984;2023-11-21T12:19:22;2.70;;;2.50;;
65189;SDS011;51777;53.570;9.984;2023-11-21T12:21:48;3.03;;;2.72;;
65189;SDS011;51777;53.570;9.984;2023-11-21T12:24:15;4.75;;;2.90;;
65189;SDS011;51777;53.570;9.984;2023-11-21T12:26:43;4.88;;;2.70;;
65189;SDS011;51777;53.570;9.984;2023-11-21T12:29:10;4.45;;;2.78;;
65189;SDS011;51777;53.570;9.984;2023-11-21T12:31:35;4.25;;;2.85;;
65189;SDS011;51777;53.570;9.984;2023-11-21T12:34:01;6.53;;;3.40;;
65189;SDS011;51777;53.570;9.984;2023-11-21T12:36:26;3.63;;;2.80;;
65189;SDS011;51777;53.570;9.984;2023-11-21T12:38:57;4.13;;;3.00;;
65189;SDS011;51777;53.570;9.984;2023-11-21T12:41:23;6.28;;;2.97;;
65189;SDS011;51777;53.570;9.984;2023-11-21T12:43:50;4.25;;;3.05;;
65189;SDS011;51777;53.570;9.984;2023-11-21T12:46:15;8.10;;;4.95;;
65189;SDS011;51777;53.570;9.984;2023-11-21T12:48:43;5.07;;;3.30;;
65189;SDS011;51777;53.570;9.984;2023-11-21T12:51:10;7.93;;;2.95;;
65189;SDS011;51777;53.570;9.984;2023-11-21T12:53:40;4.85;;;2.75;;
65189;SDS011;51777;53.570;9.984;2023-11-21T12:56:07;4.72;;;2.60;;
65189;SDS011;51777;53.570;9.984;2023-11-21T13:01:29;4.20;;;3.15;;
65189;SDS011;51777;53.570;9.984;2023-11-21T13:03:58;5.43;;;3.38;;
65189;SDS011;51777;53.570;9.984;2023-11-21T13:06:24;7.07;;;3.10;;
65189;SDS011;51777;53.570;9.984;2023-11-21T13:08:51;4.28;;;3.20;;
65189;SDS011;51777;53.570;9.984;2023-11-21T13:11:22;5.53;;;3.10;;
65189;SDS011;51777;53.570;9.984;2023-11-21T13:13:47;3.83;;;2.88;;
65189;SDS011;51777;53.570;9.984;2023-11-21T13:16:18;4.93;;;2.90;;
65189;SDS011;51777;53.570;9.984;2023-11-21T13:18:45;3.72;;;2.65;;
65189;SDS011;51777;53.570;9.984;2023-11-21T13:21:11;3.80;;;2.88;;
65189;SDS011;51777;53.570;9.984;2023-11-21T13:23:40;4.63;;;2.85;;
65189;SDS011;51777;53.570;9.984;2023-11-21T13:26:07;4.15;;;2.60;;
65189;SDS011;51777;53.570;9.984;2023-11-21T13:28:33;3.47;;;3.00;;
65189;SDS011;51777;53.570;9.984;2023-11-21T13:31:00;4.43;;;2.85;;
65189;SDS011;51777;53.570;9.984;2023-11-21T13:33:45;5.93;;;2.80;;
65189;SDS011;51777;53.570;9.984;2023-11-21T13:36:16;8.02;;;3.05;;
65189;SDS011;51777;53.570;9.984;2023-11-21T13:38:47;2.95;;;2.63;;
65189;SDS011;51777;53.570;9.984;2023-11-21T13:41:14;4.57;;;2.72;;
65189;SDS011;51777;53.570;9.984;2023-11-21T13:43:39;8.23;;;2.80;;
65189;SDS011;51777;53.570;9.984;2023-11-21T13:46:08;3.85;;;2.78;;
65189;SDS011;51777;53.570;9.984;2023-11-21T13:48:46;4.03;;;2.70;;
65189;SDS011;51777;53.570;9.984;2023-11-21T13:53:55;5.30;;;2.85;;
65189;SDS011;51777;53.570;9.984;2023-11-21T13:56:21;4.28;;;3.00;;
65189;SDS011;51777;53.570;9.984;2023-11-21T13:58:49;3.88;;;2.78;;
65189;SDS011;51777;53.570;9.984;2023-11-21T14:01:18;4.43;;;2.60;;
65189;SDS011;51777;53.570;9.984;2023-11-21T14:03:54;3.28;;;2.47;;
65189;SDS011;51777;53.570;9.984;2023-11-21T14:06:48;3.15;;;2.45;;
65189;SDS011;51777;53.570;9.984;2023-11-21T14:09:15;2.60;;;2.38;;
65189;SDS011;51777;53.570;9.984;2023-11-21T14:11:50;5.50;;;2.92;;
65189;SDS011;51777;53.570;9.984;2023-11-21T14:14:17;5.03;;;2.78;;
65189;SDS011;51777;53.570;9.984;2023-11-21T14:16:43;3.80;;;2.47;;
65189;SDS011;51777;53.570;9.984;2023-11-21T14:19:10;8.05;;;3.08;;
65189;SDS011;51777;53.570;9.984;2023-11-21T14:21:44;2.83;;;2.60;;
65189;SDS011;51777;53.570;9.984;2023-11-21T14:24:11;5.90;;;2.90;;
65189;SDS011;51777;53.570;9.984;2023-11-21T14:26:41;4.15;;;2.53;;
65189;SDS011;51777;53.570;9.984;2023-11-21T14:29:08;5.80;;;2.97;;
65189;SDS011;51777;53.570;9.984;2023-11-21T14:31:34;6.32;;;2.70;;
65189;SDS011;51777;53.570;9.984;2023-11-21T14:34:00;3.83;;;2.78;;
65189;SDS011;51777;53.570;9.984;2023-11-21T14:36:31;3.38;;;2.40;;
65189;SDS011;51777;53.570;9.984;2023-11-21T14:38:56;3.13;;;2.70;;
65189;SDS011;51777;53.570;9.984;2023-11-21T14:41:22;3.10;;;2.38;;
65189;SDS011;51777;53.570;9.984;2023-11-21T14:43:47;4.85;;;2.47;;
65189;SDS011;51777;53.570;9.984;2023-11-21T14:46:14;2.63;;;2.28;;
65189;SDS011;51777;53.570;9.984;2023-11-21T14:48:42;4.80;;;2.50;;
65189;SDS011;51777;53.570;9.984;2023-11-21T14:51:10;5.60;;;2.50;;
65189;SDS011;51777;53.570;9.984;2023-11-21T14:53:54;3.33;;;2.60;;
65189;SDS011;51777;53.570;9.984;2023-11-21T14:56:32;5.32;;;2.45;;
65189;SDS011;51777;53.570;9.984;2023-11-21T14:59:03;4.50;;;2.70;;
65189;SDS011;51777;53.570;9.984;2023-11-21T15:01:37;4.95;;;2.75;;
65189;SDS011;51777;53.570;9.984;2023-11-21T15:04:20;4.20;;;2.70;;
65189;SDS011;51777;53.570;9.984;2023-11-21T15:07:01;2.88;;;2.15;;
65189;SDS011;51777;53.570;9.984;2023-11-21T15:09:36;6.40;;;2.33;;